Las Vegas, Nevada
Current Conditions -  °F | °C
As of 6:56 PM on Friday 21 Nov 2014 (Local Time) from KLAS Reporting Station
Clear Clear  
Wind Chill: 16°   Ceiling: Unl
Heat Index: 16°   Visibility: 10mi
Dew Point: -3°   Wind: 10mph
Humidity: 28%   Direction: 200°SSW
Pressure: 29.96"   Gusts: NA
Location:  36.17°N, 115.13°W
Report Text: KLAS 220256Z 20009KT 10SM CLR 16/M03 A2996 RMK AO2 SLP137 T01561028 51016
Loading
Personal Weather Stations






























Interactive Weather Map New forecast layout! Learn more

10-Day Weather Forecast

Advertisements
Track Severe Weather on mobile